sensor_id;sensor_type;location;lat;lon;timestamp;temperature;humidity
39925;DHT22;25592;49.986;11.618;2023-05-01T00:00:50;13.20;77.60
39925;DHT22;25592;49.986;11.618;2023-05-01T00:03:36;13.10;77.80
39925;DHT22;25592;49.986;11.618;2023-05-01T00:06:22;13.10;78.40
39925;DHT22;25592;49.986;11.618;2023-05-01T00:09:07;13.10;78.20
39925;DHT22;25592;49.986;11.618;2023-05-01T00:11:53;13.00;77.80
39925;DHT22;25592;49.986;11.618;2023-05-01T00:14:39;13.00;77.70
39925;DHT22;25592;49.986;11.618;2023-05-01T00:17:24;12.90;77.70
39925;DHT22;25592;49.986;11.618;2023-05-01T00:20:10;12.90;77.70
39925;DHT22;25592;49.986;11.618;2023-05-01T00:22:55;12.90;77.30
39925;DHT22;25592;49.986;11.618;2023-05-01T00:25:41;13.00;77.40
39925;DHT22;25592;49.986;11.618;2023-05-01T00:28:27;13.00;77.40
39925;DHT22;25592;49.986;11.618;2023-05-01T00:31:12;13.00;77.30
39925;DHT22;25592;49.986;11.618;2023-05-01T00:33:58;12.90;77.60
39925;DHT22;25592;49.986;11.618;2023-05-01T00:36:43;12.90;77.80
39925;DHT22;25592;49.986;11.618;2023-05-01T00:39:28;12.70;77.30
39925;DHT22;25592;49.986;11.618;2023-05-01T00:42:14;12.60;78.00
39925;DHT22;25592;49.986;11.618;2023-05-01T00:44:59;12.60;78.20
39925;DHT22;25592;49.986;11.618;2023-05-01T00:47:45;12.50;78.60
39925;DHT22;25592;49.986;11.618;2023-05-01T00:50:31;12.60;78.70
39925;DHT22;25592;49.986;11.618;2023-05-01T00:53:16;12.50;79.10
39925;DHT22;25592;49.986;11.618;2023-05-01T00:56:02;12.40;78.90
39925;DHT22;25592;49.986;11.618;2023-05-01T00:58:49;12.30;78.70
39925;DHT22;25592;49.986;11.618;2023-05-01T01:01:37;12.30;79.50
39925;DHT22;25592;49.986;11.618;2023-05-01T01:04:22;12.30;79.40
39925;DHT22;25592;49.986;11.618;2023-05-01T01:07:28;12.40;79.00
39925;DHT22;25592;49.986;11.618;2023-05-01T01:10:26;12.40;79.20
39925;DHT22;25592;49.986;11.618;2023-05-01T01:16:53;12.20;78.90
39925;DHT22;25592;49.986;11.618;2023-05-01T01:26:01;12.30;78.50
39925;DHT22;25592;49.986;11.618;2023-05-01T01:35:02;12.30;78.10
39925;DHT22;25592;49.986;11.618;2023-05-01T01:37:56;12.20;78.10
39925;DHT22;25592;49.986;11.618;2023-05-01T01:40:58;12.10;78.60
39925;DHT22;25592;49.986;11.618;2023-05-01T01:43:49;12.00;78.70
39925;DHT22;25592;49.986;11.618;2023-05-01T01:46:38;12.10;79.10
39925;DHT22;25592;49.986;11.618;2023-05-01T01:49:26;12.00;79.00
39925;DHT22;25592;49.986;11.618;2023-05-01T01:52:15;12.10;79.30
39925;DHT22;25592;49.986;11.618;2023-05-01T01:55:11;12.00;79.10
39925;DHT22;25592;49.986;11.618;2023-05-01T01:57:57;12.00;78.90
39925;DHT22;25592;49.986;11.618;2023-05-01T02:00:44;12.00;79.10
39925;DHT22;25592;49.986;11.618;2023-05-01T02:03:30;11.90;79.20
39925;DHT22;25592;49.986;11.618;2023-05-01T02:06:17;11.80;79.20
39925;DHT22;25592;49.986;11.618;2023-05-01T02:09:03;11.90;79.80
39925;DHT22;25592;49.986;11.618;2023-05-01T02:11:51;11.90;79.30
39925;DHT22;25592;49.986;11.618;2023-05-01T02:14:38;11.90;79.70
39925;DHT22;25592;49.986;11.618;2023-05-01T02:17:25;11.80;79.30
39925;DHT22;25592;49.986;11.618;2023-05-01T02:20:12;11.80;79.70
39925;DHT22;25592;49.986;11.618;2023-05-01T02:22:59;11.80;79.80
39925;DHT22;25592;49.986;11.618;2023-05-01T02:25:44;11.70;80.00
39925;DHT22;25592;49.986;11.618;2023-05-01T02:28:33;11.70;79.90
39925;DHT22;25592;49.986;11.618;2023-05-01T02:31:19;11.70;80.10
39925;DHT22;25592;49.986;11.618;2023-05-01T02:34:05;11.60;79.90
39925;DHT22;25592;49.986;11.618;2023-05-01T02:36:51;11.70;80.20
39925;DHT22;25592;49.986;11.618;2023-05-01T02:39:37;11.70;79.30
39925;DHT22;25592;49.986;11.618;2023-05-01T02:42:23;11.60;79.50
39925;DHT22;25592;49.986;11.618;2023-05-01T02:45:18;11.70;79.80
39925;DHT22;25592;49.986;11.618;2023-05-01T02:48:06;11.70;79.70
39925;DHT22;25592;49.986;11.618;2023-05-01T02:50:52;11.60;79.40
39925;DHT22;25592;49.986;11.618;2023-05-01T02:53:39;11.60;79.60
39925;DHT22;25592;49.986;11.618;2023-05-01T02:56:25;11.60;79.50
39925;DHT22;25592;49.986;11.618;2023-05-01T02:59:13;11.60;79.50
39925;DHT22;25592;49.986;11.618;2023-05-01T03:01:58;11.60;79.50
39925;DHT22;25592;49.986;11.618;2023-05-01T03:04:44;11.50;79.70
39925;DHT22;25592;49.986;11.618;2023-05-01T03:07:29;11.10;79.90
39925;DHT22;25592;49.986;11.618;2023-05-01T03:10:19;11.60;79.10
39925;DHT22;25592;49.986;11.618;2023-05-01T03:13:04;11.50;79.20
39925;DHT22;25592;49.986;11.618;2023-05-01T03:15:50;11.40;79.20
39925;DHT22;25592;49.986;11.618;2023-05-01T03:18:35;11.50;79.20
39925;DHT22;25592;49.986;11.618;2023-05-01T03:21:21;11.40;79.50
39925;DHT22;25592;49.986;11.618;2023-05-01T03:24:06;11.30;79.80
39925;DHT22;25592;49.986;11.618;2023-05-01T03:26:51;11.30;79.70
39925;DHT22;25592;49.986;11.618;2023-05-01T03:29:37;11.20;79.90
39925;DHT22;25592;49.986;11.618;2023-05-01T03:32:22;11.30;80.20
39925;DHT22;25592;49.986;11.618;2023-05-01T03:35:08;11.30;80.60
39925;DHT22;25592;49.986;11.618;2023-05-01T03:37:54;11.30;80.70
39925;DHT22;25592;49.986;11.618;2023-05-01T03:40:39;11.20;80.80
39925;DHT22;25592;49.986;11.618;2023-05-01T03:43:25;11.10;80.80
39925;DHT22;25592;49.986;11.618;2023-05-01T03:46:10;11.10;80.00
39925;DHT22;25592;49.986;11.618;2023-05-01T03:48:57;11.10;79.60
39925;DHT22;25592;49.986;11.618;2023-05-01T03:51:42;11.10;79.40
39925;DHT22;25592;49.986;11.618;2023-05-01T03:54:27;11.00;80.00
39925;DHT22;25592;49.986;11.618;2023-05-01T03:57:13;11.00;80.30
39925;DHT22;25592;49.986;11.618;2023-05-01T03:59:58;11.10;80.90
39925;DHT22;25592;49.986;11.618;2023-05-01T04:02:43;10.90;81.00
39925;DHT22;25592;49.986;11.618;2023-05-01T04:05:29;10.80;81.80
39925;DHT22;25592;49.986;11.618;2023-05-01T04:08:14;10.80;82.10
39925;DHT22;25592;49.986;11.618;2023-05-01T04:11:00;10.90;82.10
39925;DHT22;25592;49.986;11.618;2023-05-01T04:13:45;10.80;81.70
39925;DHT22;25592;49.986;11.618;2023-05-01T04:16:31;10.80;82.30
39925;DHT22;25592;49.986;11.618;2023-05-01T04:19:16;10.80;81.90
39925;DHT22;25592;49.986;11.618;2023-05-01T04:22:02;10.90;81.80
39925;DHT22;25592;49.986;11.618;2023-05-01T04:24:47;10.90;81.90
39925;DHT22;25592;49.986;11.618;2023-05-01T04:27:33;10.90;81.80
39925;DHT22;25592;49.986;11.618;2023-05-01T04:30:18;10.90;81.70
39925;DHT22;25592;49.986;11.618;2023-05-01T04:33:03;10.90;81.60
39925;DHT22;25592;49.986;11.618;2023-05-01T04:35:55;10.90;81.50
39925;DHT22;25592;49.986;11.618;2023-05-01T04:38:41;11.00;81.40
39925;DHT22;25592;49.986;11.618;2023-05-01T04:41:26;11.00;81.10
39925;DHT22;25592;49.986;11.618;2023-05-01T04:44:13;11.00;81.60
39925;DHT22;25592;49.986;11.618;2023-05-01T04:47:03;11.00;82.20
39925;DHT22;25592;49.986;11.618;2023-05-01T04:49:48;11.00;82.00
39925;DHT22;25592;49.986;11.618;2023-05-01T04:52:34;11.00;81.80
39925;DHT22;25592;49.986;11.618;2023-05-01T04:55:20;11.00;81.90
39925;DHT22;25592;49.986;11.618;2023-05-01T04:58:05;11.00;82.50
39925;DHT22;25592;49.986;11.618;2023-05-01T05:00:50;11.00;82.70
39925;DHT22;25592;49.986;11.618;2023-05-01T05:03:36;10.90;82.80
39925;DHT22;25592;49.986;11.618;2023-05-01T05:06:21;10.80;83.00
39925;DHT22;25592;49.986;11.618;2023-05-01T05:09:07;10.60;84.00
39925;DHT22;25592;49.986;11.618;2023-05-01T05:11:52;10.70;83.50
39925;DHT22;25592;49.986;11.618;2023-05-01T05:14:38;10.70;83.60
39925;DHT22;25592;49.986;11.618;2023-05-01T05:17:23;10.80;83.90
39925;DHT22;25592;49.986;11.618;2023-05-01T05:20:09;10.80;83.10
39925;DHT22;25592;49.986;11.618;2023-05-01T05:22:54;10.90;83.20
39925;DHT22;25592;49.986;11.618;2023-05-01T05:25:40;11.00;83.20
39925;DHT22;25592;49.986;11.618;2023-05-01T05:28:25;10.90;83.50
39925;DHT22;25592;49.986;11.618;2023-05-01T05:31:11;11.00;83.70
39925;DHT22;25592;49.986;11.618;2023-05-01T05:33:56;10.90;83.90
39925;DHT22;25592;49.986;11.618;2023-05-01T05:36:42;10.90;83.90
39925;DHT22;25592;49.986;11.618;2023-05-01T05:39:27;11.00;83.90
39925;DHT22;25592;49.986;11.618;2023-05-01T05:42:13;11.10;84.10
39925;DHT22;25592;49.986;11.618;2023-05-01T05:44:58;11.10;84.30
39925;DHT22;25592;49.986;11.618;2023-05-01T05:47:43;11.10;84.20
39925;DHT22;25592;49.986;11.618;2023-05-01T05:50:29;11.20;83.70
39925;DHT22;25592;49.986;11.618;2023-05-01T05:53:14;11.10;83.90
39925;DHT22;25592;49.986;11.618;2023-05-01T05:56:00;11.20;84.30
39925;DHT22;25592;49.986;11.618;2023-05-01T05:58:45;11.30;84.20
39925;DHT22;25592;49.986;11.618;2023-05-01T06:01:30;11.30;83.90
39925;DHT22;25592;49.986;11.618;2023-05-01T06:04:16;11.20;83.50
39925;DHT22;25592;49.986;11.618;2023-05-01T06:07:02;11.30;83.60
39925;DHT22;25592;49.986;11.618;2023-05-01T06:09:47;11.30;83.60
39925;DHT22;25592;49.986;11.618;2023-05-01T06:12:32;11.40;83.40
39925;DHT22;25592;49.986;11.618;2023-05-01T06:15:22;11.40;83.30
39925;DHT22;25592;49.986;11.618;2023-05-01T06:18:10;11.50;83.90
39925;DHT22;25592;49.986;11.618;2023-05-01T06:20:56;11.50;83.80
39925;DHT22;25592;49.986;11.618;2023-05-01T06:23:42;11.60;83.60
39925;DHT22;25592;49.986;11.618;2023-05-01T06:26:28;11.60;84.10
39925;DHT22;25592;49.986;11.618;2023-05-01T06:29:13;11.60;83.50
39925;DHT22;25592;49.986;11.618;2023-05-01T06:31:58;11.60;83.80
39925;DHT22;25592;49.986;11.618;2023-05-01T06:34:44;11.70;83.40
39925;DHT22;25592;49.986;11.618;2023-05-01T06:37:30;11.70;83.60
39925;DHT22;25592;49.986;11.618;2023-05-01T06:40:15;11.60;84.40
39925;DHT22;25592;49.986;11.618;2023-05-01T06:43:03;11.70;84.70
39925;DHT22;25592;49.986;11.618;2023-05-01T06:45:49;11.70;84.00
39925;DHT22;25592;49.986;11.618;2023-05-01T06:48:35;11.80;82.90
39925;DHT22;25592;49.986;11.618;2023-05-01T06:51:20;11.90;82.90
39925;DHT22;25592;49.986;11.618;2023-05-01T06:54:05;12.00;82.50
39925;DHT22;25592;49.986;11.618;2023-05-01T06:56:52;12.00;82.90
39925;DHT22;25592;49.986;11.618;2023-05-01T06:59:37;12.10;82.80
39925;DHT22;25592;49.986;11.618;2023-05-01T07:02:23;12.10;82.90
39925;DHT22;25592;49.986;11.618;2023-05-01T07:05:08;12.30;82.50
39925;DHT22;25592;49.986;11.618;2023-05-01T07:07:54;12.10;85.60
39925;DHT22;25592;49.986;11.618;2023-05-01T07:10:45;12.30;81.20
39925;DHT22;25592;49.986;11.618;2023-05-01T07:13:30;12.50;85.10
39925;DHT22;25592;49.986;11.618;2023-05-01T07:16:16;12.90;87.40
39925;DHT22;25592;49.986;11.618;2023-05-01T07:19:01;13.10;83.00
39925;DHT22;25592;49.986;11.618;2023-05-01T07:21:46;13.20;82.70
39925;DHT22;25592;49.986;11.618;2023-05-01T07:24:32;13.30;80.10
39925;DHT22;25592;49.986;11.618;2023-05-01T07:27:17;13.30;79.40
39925;DHT22;25592;49.986;11.618;2023-05-01T07:30:03;13.30;79.80
39925;DHT22;25592;49.986;11.618;2023-05-01T07:32:49;13.50;79.40
39925;DHT22;25592;49.986;11.618;2023-05-01T07:35:34;13.50;79.90
39925;DHT22;25592;49.986;11.618;2023-05-01T07:38:20;13.60;80.20
39925;DHT22;25592;49.986;11.618;2023-05-01T07:41:05;13.80;80.00
39925;DHT22;25592;49.986;11.618;2023-05-01T07:43:50;13.90;80.10
39925;DHT22;25592;49.986;11.618;2023-05-01T07:46:36;14.00;80.40
39925;DHT22;25592;49.986;11.618;2023-05-01T07:49:22;14.00;79.90
39925;DHT22;25592;49.986;11.618;2023-05-01T07:52:07;14.20;79.90
39925;DHT22;25592;49.986;11.618;2023-05-01T07:54:53;14.30;80.10
39925;DHT22;25592;49.986;11.618;2023-05-01T07:57:38;14.40;80.00
39925;DHT22;25592;49.986;11.618;2023-05-01T08:00:24;14.50;80.10
39925;DHT22;25592;49.986;11.618;2023-05-01T08:03:10;14.50;79.80
39925;DHT22;25592;49.986;11.618;2023-05-01T08:05:56;14.60;78.10
39925;DHT22;25592;49.986;11.618;2023-05-01T08:08:41;14.60;78.90
39925;DHT22;25592;49.986;11.618;2023-05-01T08:11:27;14.70;78.20
39925;DHT22;25592;49.986;11.618;2023-05-01T08:14:14;14.70;77.90
39925;DHT22;25592;49.986;11.618;2023-05-01T08:17:01;14.90;75.70
39925;DHT22;25592;49.986;11.618;2023-05-01T08:19:46;14.90;75.40
39925;DHT22;25592;49.986;11.618;2023-05-01T08:22:32;15.00;74.50
39925;DHT22;25592;49.986;11.618;2023-05-01T08:25:17;15.00;74.90
39925;DHT22;25592;49.986;11.618;2023-05-01T08:28:03;15.20;75.70
39925;DHT22;25592;49.986;11.618;2023-05-01T08:30:48;15.30;74.40
39925;DHT22;25592;49.986;11.618;2023-05-01T08:33:34;15.20;74.70
39925;DHT22;25592;49.986;11.618;2023-05-01T08:36:19;15.30;74.30
39925;DHT22;25592;49.986;11.618;2023-05-01T08:39:05;15.40;74.20
39925;DHT22;25592;49.986;11.618;2023-05-01T08:41:50;15.50;72.60
39925;DHT22;25592;49.986;11.618;2023-05-01T08:44:40;15.70;73.80
39925;DHT22;25592;49.986;11.618;2023-05-01T08:47:26;16.00;73.70
39925;DHT22;25592;49.986;11.618;2023-05-01T08:50:16;16.20;72.00
39925;DHT22;25592;49.986;11.618;2023-05-01T08:53:02;16.40;72.10
39925;DHT22;25592;49.986;11.618;2023-05-01T08:55:49;16.50;71.60
39925;DHT22;25592;49.986;11.618;2023-05-01T08:58:36;16.50;71.40
39925;DHT22;25592;49.986;11.618;2023-05-01T09:01:23;16.50;70.90
39925;DHT22;25592;49.986;11.618;2023-05-01T09:04:09;16.60;71.60
39925;DHT22;25592;49.986;11.618;2023-05-01T09:06:55;16.40;69.90
39925;DHT22;25592;49.986;11.618;2023-05-01T09:09:42;16.40;70.20
39925;DHT22;25592;49.986;11.618;2023-05-01T09:12:28;16.60;70.80
39925;DHT22;25592;49.986;11.618;2023-05-01T09:15:14;16.70;70.00
39925;DHT22;25592;49.986;11.618;2023-05-01T09:17:59;17.00;69.50
39925;DHT22;25592;49.986;11.618;2023-05-01T09:20:48;17.10;69.60
39925;DHT22;25592;49.986;11.618;2023-05-01T09:23:33;17.30;68.00
39925;DHT22;25592;49.986;11.618;2023-05-01T09:26:21;17.20;67.90
39925;DHT22;25592;49.986;11.618;2023-05-01T09:29:07;17.20;67.60
39925;DHT22;25592;49.986;11.618;2023-05-01T09:31:54;17.50;67.90
39925;DHT22;25592;49.986;11.618;2023-05-01T09:34:43;17.90;68.00
39925;DHT22;25592;49.986;11.618;2023-05-01T09:37:30;18.20;66.50
39925;DHT22;25592;49.986;11.618;2023-05-01T09:40:15;18.10;66.40
39925;DHT22;25592;49.986;11.618;2023-05-01T09:43:01;17.90;63.60
39925;DHT22;25592;49.986;11.618;2023-05-01T09:46:05;18.20;65.70
39925;DHT22;25592;49.986;11.618;2023-05-01T09:48:56;18.50;65.60
39925;DHT22;25592;49.986;11.618;2023-05-01T09:51:42;18.60;62.90
39925;DHT22;25592;49.986;11.618;2023-05-01T09:54:29;18.50;62.60
39925;DHT22;25592;49.986;11.618;2023-05-01T09:57:14;18.90;63.60
39925;DHT22;25592;49.986;11.618;2023-05-01T10:00:03;19.30;62.50
39925;DHT22;25592;49.986;11.618;2023-05-01T10:02:53;19.70;63.10
39925;DHT22;25592;49.986;11.618;2023-05-01T10:05:42;19.20;60.30
39925;DHT22;25592;49.986;11.618;2023-05-01T10:08:47;19.50;61.10
39925;DHT22;25592;49.986;11.618;2023-05-01T10:11:53;19.80;61.80
39925;DHT22;25592;49.986;11.618;2023-05-01T10:14:53;19.70;60.50
39925;DHT22;25592;49.986;11.618;2023-05-01T10:17:40;19.70;60.90
39925;DHT22;25592;49.986;11.618;2023-05-01T10:20:25;19.90;62.30
39925;DHT22;25592;49.986;11.618;2023-05-01T10:23:11;20.00;61.40
39925;DHT22;25592;49.986;11.618;2023-05-01T10:26:00;19.90;62.60
39925;DHT22;25592;49.986;11.618;2023-05-01T10:28:48;20.00;61.40
39925;DHT22;25592;49.986;11.618;2023-05-01T10:31:34;19.80;60.30
39925;DHT22;25592;49.986;11.618;2023-05-01T10:34:21;19.90;61.20
39925;DHT22;25592;49.986;11.618;2023-05-01T10:37:16;19.70;60.60
39925;DHT22;25592;49.986;11.618;2023-05-01T10:41:04;20.00;61.00
39925;DHT22;25592;49.986;11.618;2023-05-01T10:43:30;20.00;61.10
39925;DHT22;25592;49.986;11.618;2023-05-01T10:49:03;19.40;60.00
39925;DHT22;25592;49.986;11.618;2023-05-01T10:54:42;19.20;61.50
39925;DHT22;25592;49.986;11.618;2023-05-01T10:57:42;19.30;62.40
39925;DHT22;25592;49.986;11.618;2023-05-01T11:00:28;19.50;62.00
39925;DHT22;25592;49.986;11.618;2023-05-01T11:06:05;19.90;61.70
39925;DHT22;25592;49.986;11.618;2023-05-01T11:08:52;20.00;61.90
39925;DHT22;25592;49.986;11.618;2023-05-01T11:11:44;19.90;61.40
39925;DHT22;25592;49.986;11.618;2023-05-01T11:23:16;19.40;62.70
39925;DHT22;25592;49.986;11.618;2023-05-01T11:26:02;19.40;62.70
39925;DHT22;25592;49.986;11.618;2023-05-01T11:28:53;19.30;63.20
39925;DHT22;25592;49.986;11.618;2023-05-01T11:31:38;19.20;65.20
39925;DHT22;25592;49.986;11.618;2023-05-01T11:34:24;19.10;63.20
39925;DHT22;25592;49.986;11.618;2023-05-01T11:37:10;18.90;64.10
39925;DHT22;25592;49.986;11.618;2023-05-01T11:39:55;18.80;64.70
39925;DHT22;25592;49.986;11.618;2023-05-01T11:42:41;18.80;65.00
39925;DHT22;25592;49.986;11.618;2023-05-01T11:45:26;18.90;63.70
39925;DHT22;25592;49.986;11.618;2023-05-01T11:48:14;18.90;63.80
39925;DHT22;25592;49.986;11.618;2023-05-01T11:51:11;19.00;64.10
39925;DHT22;25592;49.986;11.618;2023-05-01T11:54:07;18.90;64.30
39925;DHT22;25592;49.986;11.618;2023-05-01T11:56:59;18.80;64.20
39925;DHT22;25592;49.986;11.618;2023-05-01T11:59:46;18.70;64.50
39925;DHT22;25592;49.986;11.618;2023-05-01T12:02:32;18.60;64.20
39925;DHT22;25592;49.986;11.618;2023-05-01T12:05:17;18.50;64.60
39925;DHT22;25592;49.986;11.618;2023-05-01T12:08:16;18.50;64.60
39925;DHT22;25592;49.986;11.618;2023-05-01T12:11:05;18.50;65.50
39925;DHT22;25592;49.986;11.618;2023-05-01T12:13:52;18.40;64.10
39925;DHT22;25592;49.986;11.618;2023-05-01T12:16:37;18.50;64.20
39925;DHT22;25592;49.986;11.618;2023-05-01T12:19:24;18.50;64.40
39925;DHT22;25592;49.986;11.618;2023-05-01T12:22:10;18.60;64.20
39925;DHT22;25592;49.986;11.618;2023-05-01T12:24:55;18.60;64.50
39925;DHT22;25592;49.986;11.618;2023-05-01T12:27:42;18.40;64.60
39925;DHT22;25592;49.986;11.618;2023-05-01T12:30:28;18.40;64.30
39925;DHT22;25592;49.986;11.618;2023-05-01T12:33:15;18.20;63.70
39925;DHT22;25592;49.986;11.618;2023-05-01T12:36:08;18.10;64.10
39925;DHT22;25592;49.986;11.618;2023-05-01T12:41:48;18.30;64.00
39925;DHT22;25592;49.986;11.618;2023-05-01T12:44:33;18.20;64.40
39925;DHT22;25592;49.986;11.618;2023-05-01T12:47:19;18.30;64.40
39925;DHT22;25592;49.986;11.618;2023-05-01T12:50:05;18.20;64.00
39925;DHT22;25592;49.986;11.618;2023-05-01T12:52:51;18.20;64.70
39925;DHT22;25592;49.986;11.618;2023-05-01T12:55:45;18.30;64.70
39925;DHT22;25592;49.986;11.618;2023-05-01T12:58:37;18.10;65.20
39925;DHT22;25592;49.986;11.618;2023-05-01T13:01:24;18.00;65.30
39925;DHT22;25592;49.986;11.618;2023-05-01T13:04:21;18.00;65.30
39925;DHT22;25592;49.986;11.618;2023-05-01T13:07:11;18.00;64.30
39925;DHT22;25592;49.986;11.618;2023-05-01T13:09:58;18.00;64.50
39925;DHT22;25592;49.986;11.618;2023-05-01T13:12:44;18.00;64.60
39925;DHT22;25592;49.986;11.618;2023-05-01T13:15:30;17.90;64.90
39925;DHT22;25592;49.986;11.618;2023-05-01T13:18:15;17.90;65.20
39925;DHT22;25592;49.986;11.618;2023-05-01T13:21:08;17.90;65.60
39925;DHT22;25592;49.986;11.618;2023-05-01T13:23:59;17.90;65.90
39925;DHT22;25592;49.986;11.618;2023-05-01T13:26:44;17.90;67.60
39925;DHT22;25592;49.986;11.618;2023-05-01T13:29:30;17.80;70.80
39925;DHT22;25592;49.986;11.618;2023-05-01T13:32:16;17.70;70.00
39925;DHT22;25592;49.986;11.618;2023-05-01T13:35:02;17.70;71.20
39925;DHT22;25592;49.986;11.618;2023-05-01T13:37:47;17.50;72.00
39925;DHT22;25592;49.986;11.618;2023-05-01T13:40:33;17.40;72.50
39925;DHT22;25592;49.986;11.618;2023-05-01T13:43:18;17.30;74.40
39925;DHT22;25592;49.986;11.618;2023-05-01T13:46:06;17.20;74.80
39925;DHT22;25592;49.986;11.618;2023-05-01T13:48:51;17.30;73.50
39925;DHT22;25592;49.986;11.618;2023-05-01T13:51:40;17.20;75.60
39925;DHT22;25592;49.986;11.618;2023-05-01T13:54:26;17.30;79.30
39925;DHT22;25592;49.986;11.618;2023-05-01T13:57:12;17.10;81.10
39925;DHT22;25592;49.986;11.618;2023-05-01T13:59:58;16.80;84.80
39925;DHT22;25592;49.986;11.618;2023-05-01T14:02:45;16.50;86.00
39925;DHT22;25592;49.986;11.618;2023-05-01T14:05:32;16.50;88.00
39925;DHT22;25592;49.986;11.618;2023-05-01T14:08:23;16.40;88.60
39925;DHT22;25592;49.986;11.618;2023-05-01T14:11:11;16.20;90.50
39925;DHT22;25592;49.986;11.618;2023-05-01T14:13:57;16.10;90.90
39925;DHT22;25592;49.986;11.618;2023-05-01T14:16:49;16.00;90.30
39925;DHT22;25592;49.986;11.618;2023-05-01T14:19:35;16.10;90.70
39925;DHT22;25592;49.986;11.618;2023-05-01T14:22:20;16.20;91.30
39925;DHT22;25592;49.986;11.618;2023-05-01T14:25:22;16.30;90.90
39925;DHT22;25592;49.986;11.618;2023-05-01T14:28:07;16.30;91.10
39925;DHT22;25592;49.986;11.618;2023-05-01T14:30:53;16.40;92.40
39925;DHT22;25592;49.986;11.618;2023-05-01T14:33:40;16.30;91.40
39925;DHT22;25592;49.986;11.618;2023-05-01T14:36:27;16.10;91.90
39925;DHT22;25592;49.986;11.618;2023-05-01T14:39:15;15.90;91.60
39925;DHT22;25592;49.986;11.618;2023-05-01T14:42:01;15.80;92.70
39925;DHT22;25592;49.986;11.618;2023-05-01T14:44:46;15.90;92.40
39925;DHT22;25592;49.986;11.618;2023-05-01T14:47:32;15.70;93.40
39925;DHT22;25592;49.986;11.618;2023-05-01T14:50:19;15.80;92.90
39925;DHT22;25592;49.986;11.618;2023-05-01T14:53:04;15.80;92.40
39925;DHT22;25592;49.986;11.618;2023-05-01T14:55:51;15.70;93.20
39925;DHT22;25592;49.986;11.618;2023-05-01T14:58:38;15.50;92.90
39925;DHT22;25592;49.986;11.618;2023-05-01T15:01:23;15.40;93.10
39925;DHT22;25592;49.986;11.618;2023-05-01T15:04:08;15.40;93.50
39925;DHT22;25592;49.986;11.618;2023-05-01T15:06:56;15.50;92.80
39925;DHT22;25592;49.986;11.618;2023-05-01T15:09:41;15.60;92.40
39925;DHT22;25592;49.986;11.618;2023-05-01T15:12:27;15.50;92.30
39925;DHT22;25592;49.986;11.618;2023-05-01T15:15:12;15.40;92.30
39925;DHT22;25592;49.986;11.618;2023-05-01T15:17:57;15.40;92.50
39925;DHT22;25592;49.986;11.618;2023-05-01T15:20:43;15.20;92.80
39925;DHT22;25592;49.986;11.618;2023-05-01T15:23:28;15.40;92.80
39925;DHT22;25592;49.986;11.618;2023-05-01T15:26:15;15.20;93.10
39925;DHT22;25592;49.986;11.618;2023-05-01T15:29:01;15.10;94.10
39925;DHT22;25592;49.986;11.618;2023-05-01T15:31:46;15.30;93.40
39925;DHT22;25592;49.986;11.618;2023-05-01T15:34:39;15.30;93.20
39925;DHT22;25592;49.986;11.618;2023-05-01T15:37:27;15.30;93.10
39925;DHT22;25592;49.986;11.618;2023-05-01T15:40:12;15.30;93.20
39925;DHT22;25592;49.986;11.618;2023-05-01T15:42:57;15.40;92.80
39925;DHT22;25592;49.986;11.618;2023-05-01T15:45:43;15.30;94.20
39925;DHT22;25592;49.986;11.618;2023-05-01T15:48:29;15.40;93.30
39925;DHT22;25592;49.986;11.618;2023-05-01T15:51:14;15.40;93.20
39925;DHT22;25592;49.986;11.618;2023-05-01T15:54:00;15.50;93.40
39925;DHT22;25592;49.986;11.618;2023-05-01T15:56:46;15.50;93.30
39925;DHT22;25592;49.986;11.618;2023-05-01T15:59:32;15.60;93.10
39925;DHT22;25592;49.986;11.618;2023-05-01T16:02:17;15.60;92.80
39925;DHT22;25592;49.986;11.618;2023-05-01T16:05:03;15.60;93.40
39925;DHT22;25592;49.986;11.618;2023-05-01T16:07:53;15.50;92.90
39925;DHT22;25592;49.986;11.618;2023-05-01T16:10:39;15.50;92.80
39925;DHT22;25592;49.986;11.618;2023-05-01T16:13:25;15.40;92.80
39925;DHT22;25592;49.986;11.618;2023-05-01T16:16:11;15.30;93.40
39925;DHT22;25592;49.986;11.618;2023-05-01T16:18:58;15.40;93.20
39925;DHT22;25592;49.986;11.618;2023-05-01T16:21:44;15.30;93.20
39925;DHT22;25592;49.986;11.618;2023-05-01T16:24:33;15.30;92.90
39925;DHT22;25592;49.986;11.618;2023-05-01T16:27:18;15.30;92.70
39925;DHT22;25592;49.986;11.618;2023-05-01T16:30:04;15.30;93.70
39925;DHT22;25592;49.986;11.618;2023-05-01T16:32:50;15.30;93.30
39925;DHT22;25592;49.986;11.618;2023-05-01T16:35:35;15.40;92.70
39925;DHT22;25592;49.986;11.618;2023-05-01T16:38:21;15.40;92.70
39925;DHT22;25592;49.986;11.618;2023-05-01T16:41:07;15.40;92.90
39925;DHT22;25592;49.986;11.618;2023-05-01T16:43:57;15.40;93.20
39925;DHT22;25592;49.986;11.618;2023-05-01T16:46:54;15.50;93.10
39925;DHT22;25592;49.986;11.618;2023-05-01T16:49:40;15.50;93.30
39925;DHT22;25592;49.986;11.618;2023-05-01T16:52:30;15.40;93.10
39925;DHT22;25592;49.986;11.618;2023-05-01T16:55:16;15.50;93.10
39925;DHT22;25592;49.986;11.618;2023-05-01T16:58:01;15.40;93.30
39925;DHT22;25592;49.986;11.618;2023-05-01T17:00:47;15.50;93.10
39925;DHT22;25592;49.986;11.618;2023-05-01T17:03:32;15.50;92.80
39925;DHT22;25592;49.986;11.618;2023-05-01T17:06:18;15.50;92.80
39925;DHT22;25592;49.986;11.618;2023-05-01T17:09:04;15.50;93.20
39925;DHT22;25592;49.986;11.618;2023-05-01T17:11:50;15.50;93.40
39925;DHT22;25592;49.986;11.618;2023-05-01T17:14:36;15.50;92.90
39925;DHT22;25592;49.986;11.618;2023-05-01T17:17:21;15.50;93.20
39925;DHT22;25592;49.986;11.618;2023-05-01T17:20:07;15.50;93.60
39925;DHT22;25592;49.986;11.618;2023-05-01T17:22:53;15.40;93.70
39925;DHT22;25592;49.986;11.618;2023-05-01T17:25:38;15.30;94.00
39925;DHT22;25592;49.986;11.618;2023-05-01T17:28:24;15.20;93.90
39925;DHT22;25592;49.986;11.618;2023-05-01T17:31:09;15.10;94.20
39925;DHT22;25592;49.986;11.618;2023-05-01T17:33:55;15.10;94.20
39925;DHT22;25592;49.986;11.618;2023-05-01T17:36:40;15.10;94.00
39925;DHT22;25592;49.986;11.618;2023-05-01T17:39:26;15.00;94.70
39925;DHT22;25592;49.986;11.618;2023-05-01T17:42:12;15.00;94.10
39925;DHT22;25592;49.986;11.618;2023-05-01T17:44:58;15.00;94.10
39925;DHT22;25592;49.986;11.618;2023-05-01T17:47:44;15.00;94.40
39925;DHT22;25592;49.986;11.618;2023-05-01T17:50:31;15.00;94.90
39925;DHT22;25592;49.986;11.618;2023-05-01T17:53:18;15.00;94.20